createdAt,value
2023-02-12T00:01:43.457Z,40.83
2023-02-12T00:04:12.326Z,38.15
2023-02-12T00:06:41.517Z,38.58
2023-02-12T00:09:10.512Z,38.97
2023-02-12T00:11:39.390Z,39.55
2023-02-12T00:14:08.286Z,43.30
2023-02-12T00:16:37.254Z,40.15
2023-02-12T00:19:10.648Z,39.35
2023-02-12T00:21:39.582Z,39.90
2023-02-12T00:24:08.859Z,38.40
2023-02-12T00:26:38.225Z,38.22
2023-02-12T00:29:07.157Z,40.22
2023-02-12T00:31:36.127Z,40.55
2023-02-12T00:34:05.093Z,41.75
2023-02-12T00:36:34.700Z,45.58
2023-02-12T00:39:03.839Z,43.15
2023-02-12T00:41:32.908Z,40.03
2023-02-12T00:44:01.958Z,42.55
2023-02-12T00:46:30.948Z,42.42
2023-02-12T00:48:59.922Z,47.00
2023-02-12T00:51:28.783Z,48.75
2023-02-12T00:53:57.722Z,50.55
2023-02-12T00:56:26.766Z,52.42
2023-02-12T00:58:55.648Z,54.20
2023-02-12T01:01:24.595Z,55.97
2023-02-12T01:03:53.496Z,45.78
2023-02-12T01:06:22.418Z,43.20
2023-02-12T01:08:54.782Z,42.05
2023-02-12T01:11:23.847Z,40.17
2023-02-12T01:13:52.816Z,38.60
2023-02-12T01:16:24.545Z,37.78
2023-02-12T01:18:55.995Z,39.08
2023-02-12T01:21:30.635Z,38.30
2023-02-12T01:24:00.443Z,39.67
2023-02-12T01:26:30.982Z,36.20
2023-02-12T01:29:02.789Z,38.17
2023-02-12T01:31:34.610Z,34.97
2023-02-12T01:34:03.690Z,34.38
2023-02-12T01:36:33.104Z,35.17
2023-02-12T01:39:04.263Z,40.63
2023-02-12T01:41:37.082Z,39.92
2023-02-12T01:44:16.575Z,41.05
2023-02-12T01:46:47.056Z,37.78
2023-02-12T01:49:39.137Z,37.85
2023-02-12T01:52:21.289Z,36.58
2023-02-12T01:54:52.092Z,36.58
2023-02-12T01:57:21.627Z,36.33
2023-02-12T01:59:54.507Z,34.22
2023-02-12T02:02:23.541Z,37.60
2023-02-12T02:05:03.219Z,36.67
2023-02-12T02:07:32.752Z,36.15
2023-02-12T02:10:03.277Z,34.85
2023-02-12T02:12:51.106Z,45.28
2023-02-12T02:15:20.202Z,44.90
2023-02-12T02:17:57.026Z,36.38
2023-02-12T02:20:57.017Z,35.83
2023-02-12T02:23:49.863Z,37.83
2023-02-12T02:26:49.537Z,36.15
2023-02-12T02:29:36.673Z,36.47
2023-02-12T02:32:16.612Z,37.92
2023-02-12T02:34:57.406Z,36.10
2023-02-12T02:37:30.564Z,36.45
2023-02-12T02:40:14.669Z,34.20
2023-02-12T02:43:12.300Z,32.50
2023-02-12T02:45:53.098Z,32.65
2023-02-12T02:48:35.674Z,32.10
2023-02-12T02:51:30.564Z,30.45
2023-02-12T02:54:22.392Z,29.20
2023-02-12T02:56:54.408Z,29.40
2023-02-12T02:59:32.985Z,29.50
2023-02-12T03:02:10.457Z,31.10
2023-02-12T03:04:52.571Z,29.80
2023-02-12T03:07:23.562Z,28.70
2023-02-12T03:10:01.028Z,28.05
2023-02-12T03:12:37.097Z,28.60
2023-02-12T03:15:22.960Z,29.02
2023-02-12T03:17:53.426Z,28.23
2023-02-12T03:20:47.459Z,29.33
2023-02-12T03:26:14.339Z,27.53
2023-02-12T03:28:43.275Z,28.70
2023-02-12T03:31:26.117Z,27.95
2023-02-12T03:34:20.435Z,25.80
2023-02-12T03:36:55.690Z,24.98
2023-02-12T03:39:27.487Z,24.02
2023-02-12T03:42:07.152Z,25.20
2023-02-12T03:45:04.597Z,25.38
2023-02-12T03:47:58.056Z,25.33
2023-02-12T03:51:06.774Z,25.10
2023-02-12T03:53:35.791Z,24.60
2023-02-12T03:56:14.901Z,23.67
2023-02-12T03:58:45.671Z,21.00
2023-02-12T04:01:15.492Z,22.75
2023-02-12T04:03:45.019Z,26.17
2023-02-12T04:06:26.885Z,21.35
2023-02-12T04:08:58.319Z,21.73
2023-02-12T04:11:36.361Z,21.90
2023-02-12T04:14:23.496Z,21.73
2023-02-12T04:17:01.940Z,21.88
2023-02-12T04:20:10.626Z,20.88
2023-02-12T04:23:02.160Z,21.83
2023-02-12T04:25:40.100Z,21.60
